createdAt,value
2016-03-15T00:00:05.526Z,1004.35
2016-03-15T00:01:05.514Z,1004.33
2016-03-15T00:02:05.516Z,1004.37
2016-03-15T00:03:05.519Z,1004.33
2016-03-15T00:04:05.521Z,1004.29
2016-03-15T00:05:05.509Z,1004.25
2016-03-15T00:06:05.511Z,1004.23
2016-03-15T00:07:05.519Z,1004.23
2016-03-15T00:08:05.505Z,1004.23
2016-03-15T00:09:05.508Z,1004.24
2016-03-15T00:10:05.511Z,1004.2
2016-03-15T00:11:05.513Z,1004.21
2016-03-15T00:12:05.502Z,1004.22
2016-03-15T00:13:05.504Z,1004.28
2016-03-15T00:14:05.491Z,1004.26
2016-03-15T00:15:05.493Z,1004.2
2016-03-15T00:16:05.496Z,1004.17
2016-03-15T00:17:05.499Z,1004.13
2016-03-15T00:18:05.502Z,1004.13
2016-03-15T00:19:05.489Z,1004.1
2016-03-15T00:20:05.492Z,1004.06
2016-03-15T00:21:05.494Z,1004.01
2016-03-15T00:22:05.481Z,1003.97
2016-03-15T00:23:05.484Z,1003.92
2016-03-15T00:24:05.486Z,1003.9
2016-03-15T00:25:05.490Z,1003.9
2016-03-15T00:26:05.476Z,1003.88
2016-03-15T00:27:05.478Z,1003.87
2016-03-15T00:28:05.481Z,1003.85
2016-03-15T00:29:05.484Z,1003.91
2016-03-15T00:30:05.472Z,1003.86
2016-03-15T00:31:05.475Z,1003.79
2016-03-15T00:32:05.477Z,1003.81
2016-03-15T00:33:05.480Z,1003.8
2016-03-15T00:34:05.467Z,1003.8
2016-03-15T00:35:05.470Z,1003.81
2016-03-15T00:36:05.473Z,1003.82
2016-03-15T00:37:05.476Z,1003.88
2016-03-15T00:38:05.462Z,1003.9
2016-03-15T00:39:05.481Z,1003.87
2016-03-15T00:40:05.467Z,1003.86
2016-03-15T00:41:05.455Z,1003.83
2016-03-15T00:42:05.458Z,1003.9
2016-03-15T00:43:05.461Z,1003.9
2016-03-15T00:44:05.464Z,1003.91
2016-03-15T00:45:05.466Z,1003.9
2016-03-15T00:46:05.469Z,1003.89
2016-03-15T00:47:05.455Z,1003.9
2016-03-15T00:48:05.458Z,1003.91
2016-03-15T00:49:05.444Z,1003.91
2016-03-15T00:50:05.448Z,1003.93
2016-03-15T00:51:05.451Z,1003.92
2016-03-15T00:52:05.453Z,1003.96
2016-03-15T00:53:05.441Z,1003.93
2016-03-15T00:54:05.443Z,1003.91
2016-03-15T00:55:05.446Z,1003.88
2016-03-15T00:56:05.449Z,1003.84
2016-03-15T00:57:05.441Z,1003.82
2016-03-15T00:58:05.443Z,1003.79
2016-03-15T00:59:05.446Z,1003.78
2016-03-15T01:00:05.433Z,1003.79
2016-03-15T01:01:05.436Z,1003.74
2016-03-15T01:02:05.438Z,1003.72
2016-03-15T01:03:05.426Z,1003.7
2016-03-15T01:04:05.428Z,1003.69
2016-03-15T01:05:05.431Z,1003.65
2016-03-15T01:06:05.433Z,1003.63
2016-03-15T01:07:05.420Z,1003.61
2016-03-15T01:08:05.423Z,1003.57
2016-03-15T01:09:05.426Z,1003.56
2016-03-15T01:10:05.428Z,1003.5
2016-03-15T01:11:05.431Z,1003.47
2016-03-15T01:12:05.419Z,1003.44
2016-03-15T01:13:05.421Z,1003.38
2016-03-15T01:14:05.424Z,1003.41
2016-03-15T01:15:05.411Z,1003.35
2016-03-15T01:16:05.413Z,1003.32
2016-03-15T01:17:05.416Z,1003.31
2016-03-15T01:18:05.419Z,1003.34
2016-03-15T01:19:05.405Z,1003.25
2016-03-15T01:20:05.408Z,1003.26
2016-03-15T01:21:05.411Z,1003.25
2016-03-15T01:22:05.414Z,1003.19
2016-03-15T01:23:05.401Z,1003.19
2016-03-15T01:24:05.404Z,1003.15
2016-03-15T01:25:05.407Z,1003.04
2016-03-15T01:26:05.409Z,1003.01
2016-03-15T01:27:05.396Z,1003.01
2016-03-15T01:28:05.399Z,1003.02
2016-03-15T01:29:05.401Z,1003.02
2016-03-15T01:30:05.404Z,1002.94
2016-03-15T01:31:05.392Z,1002.91
2016-03-15T01:32:05.409Z,1002.9
2016-03-15T01:33:05.397Z,1002.87
2016-03-15T01:34:05.400Z,1002.84
2016-03-15T01:35:05.402Z,1002.85
2016-03-15T01:36:05.390Z,1002.87
2016-03-15T01:37:05.392Z,1002.83
2016-03-15T01:38:05.378Z,1002.87
2016-03-15T01:39:05.382Z,1002.85
2016-03-15T01:40:05.384Z,1002.84
2016-03-15T01:41:05.386Z,1002.84
2016-03-15T01:42:05.390Z,1002.84
2016-03-15T01:43:05.377Z,1002.81
2016-03-15T01:44:05.380Z,1002.77
2016-03-15T01:45:05.382Z,1002.8
2016-03-15T01:46:05.369Z,1002.81
2016-03-15T01:47:05.371Z,1002.8
2016-03-15T01:48:05.375Z,1002.78
2016-03-15T01:49:05.377Z,1002.78
2016-03-15T01:50:05.363Z,1002.84
2016-03-15T01:51:05.367Z,1002.8
2016-03-15T01:52:05.369Z,1002.77
2016-03-15T01:53:05.372Z,1002.79
2016-03-15T01:54:05.360Z,1002.76
2016-03-15T01:55:05.362Z,1002.82
2016-03-15T01:56:05.365Z,1002.82
2016-03-15T01:57:05.352Z,1002.83
2016-03-15T01:58:05.354Z,1002.84
2016-03-15T01:59:05.357Z,1002.9
2016-03-15T02:00:05.360Z,1002.85
2016-03-15T02:01:05.348Z,1002.86
2016-03-15T02:02:05.350Z,1002.86
2016-03-15T02:03:05.352Z,1002.83
2016-03-15T02:04:05.356Z,1002.86
2016-03-15T02:05:05.342Z,1002.86
2016-03-15T02:06:05.345Z,1002.84
2016-03-15T02:07:05.347Z,1002.84
2016-03-15T02:08:05.350Z,1002.83
2016-03-15T02:09:05.337Z,1002.8
2016-03-15T02:10:05.340Z,1002.81
2016-03-15T02:11:05.342Z,1002.81
2016-03-15T02:12:05.377Z,1002.87
2016-03-15T02:13:05.333Z,1002.83
2016-03-15T02:14:05.335Z,1002.84
2016-03-15T02:15:05.338Z,1002.82
2016-03-15T02:16:05.325Z,1002.83
2016-03-15T02:17:05.327Z,1002.8
2016-03-15T02:18:05.330Z,1002.81
2016-03-15T02:19:05.317Z,1002.82
2016-03-15T02:20:05.320Z,1002.79
2016-03-15T02:21:05.323Z,1002.78
2016-03-15T02:22:05.325Z,1002.68
2016-03-15T02:23:05.313Z,1002.68
2016-03-15T02:24:05.315Z,1002.65
2016-03-15T02:25:05.318Z,1002.63
2016-03-15T02:26:05.321Z,1002.64
2016-03-15T02:27:05.307Z,1002.62
2016-03-15T02:28:05.310Z,1002.6
2016-03-15T02:29:05.312Z,1002.63
2016-03-15T02:30:05.300Z,1002.59
2016-03-15T02:31:05.303Z,1002.56
2016-03-15T02:32:05.305Z,1002.57
2016-03-15T02:33:05.292Z,1002.59
2016-03-15T02:34:05.295Z,1002.62
2016-03-15T02:35:05.298Z,1002.65
2016-03-15T02:36:05.301Z,1002.63
2016-03-15T02:37:05.288Z,1002.63
2016-03-15T02:38:05.290Z,1002.62
2016-03-15T02:39:05.293Z,1002.62
2016-03-15T02:40:05.295Z,1002.54
2016-03-15T02:41:05.283Z,1002.54
2016-03-15T02:42:05.285Z,1002.55
2016-03-15T02:43:05.272Z,1002.53
2016-03-15T02:44:05.275Z,1002.58
2016-03-15T02:45:05.277Z,1002.52
2016-03-15T02:46:05.265Z,1002.57
2016-03-15T02:47:05.267Z,1002.47
2016-03-15T02:48:05.270Z,1002.5
2016-03-15T02:49:05.273Z,1002.48
2016-03-15T02:50:05.260Z,1002.48
2016-03-15T02:51:05.263Z,1002.45
2016-03-15T02:52:05.249Z,1002.44
2016-03-15T02:53:05.252Z,1002.47
2016-03-15T02:54:05.255Z,1002.42
2016-03-15T02:55:05.258Z,1002.41
2016-03-15T02:56:05.277Z,1002.43
2016-03-15T02:57:05.232Z,1002.35
2016-03-15T02:58:05.235Z,1002.4
2016-03-15T02:59:05.237Z,1002.34
2016-03-15T03:00:05.240Z,1002.36
2016-03-15T03:01:05.243Z,1002.29
2016-03-15T03:02:05.229Z,1002.33
2016-03-15T03:03:05.217Z,1002.28
2016-03-15T03:04:05.219Z,1002.28
2016-03-15T03:05:05.222Z,1002.28
2016-03-15T03:06:05.225Z,1002.29
2016-03-15T03:07:05.228Z,1002.25
2016-03-15T03:08:05.214Z,1002.22
2016-03-15T03:09:05.218Z,1002.22
2016-03-15T03:10:05.204Z,1002.22
2016-03-15T03:11:05.207Z,1002.17
2016-03-15T03:12:05.194Z,1002.15
2016-03-15T03:13:05.197Z,1002.18
2016-03-15T03:14:05.200Z,1002.19
2016-03-15T03:15:05.186Z,1002.2
2016-03-15T03:16:05.189Z,1002.22
2016-03-15T03:17:05.191Z,1002.18
2016-03-15T03:18:05.179Z,1002.24
2016-03-15T03:19:05.182Z,1002.25
2016-03-15T03:20:05.184Z,1002.22
2016-03-15T03:21:05.172Z,1002.29
2016-03-15T03:22:05.175Z,1002.27
2016-03-15T03:23:05.161Z,1002.24
2016-03-15T03:24:05.164Z,1002.21
2016-03-15T03:25:05.167Z,1002.24
2016-03-15T03:26:05.154Z,1002.19
2016-03-15T03:27:05.157Z,1002.22
2016-03-15T03:28:05.143Z,1002.16
2016-03-15T03:29:05.162Z,1002.2
2016-03-15T03:30:05.149Z,1002.15
2016-03-15T03:31:05.152Z,1002.17
2016-03-15T03:32:05.138Z,1002.15
2016-03-15T03:33:05.140Z,1002.14
2016-03-15T03:34:05.129Z,1002.18
2016-03-15T03:35:05.131Z,1002.15
2016-03-15T03:36:05.118Z,1002.13
2016-03-15T03:37:05.137Z,1002.17
2016-03-15T03:38:05.154Z,1002.2
2016-03-15T03:39:05.111Z,1002.15
2016-03-15T03:40:05.114Z,1002.16
2016-03-15T03:41:05.116Z,1002.19
2016-03-15T03:42:05.119Z,1002.17
2016-03-15T03:43:05.105Z,1002.15
2016-03-15T03:44:05.108Z,1002.2
2016-03-15T03:45:05.095Z,1002.19
2016-03-15T03:46:05.098Z,1002.22
2016-03-15T03:47:05.085Z,1002.24
2016-03-15T03:48:05.088Z,1002.22
2016-03-15T03:49:05.075Z,1002.27
2016-03-15T03:50:05.093Z,1002.19
2016-03-15T03:51:05.064Z,1002.21
2016-03-15T03:52:05.083Z,1002.18
2016-03-15T03:53:05.086Z,1002.2
2016-03-15T03:54:05.057Z,1002.21
2016-03-15T03:55:05.060Z,1002.13
2016-03-15T03:56:05.046Z,1002.15
2016-03-15T03:57:05.050Z,1002.14
2016-03-15T03:58:05.052Z,1002.14
2016-03-15T03:59:05.039Z,1002.1
2016-03-15T04:00:05.043Z,1002.09
2016-03-15T04:01:05.029Z,1002.05
2016-03-15T04:02:05.032Z,1002.03
2016-03-15T04:03:05.035Z,1002.03
2016-03-15T04:04:05.068Z,1002
2016-03-15T04:05:05.024Z,1002.04
2016-03-15T04:06:05.042Z,1002
2016-03-15T04:07:05.014Z,1001.95
2016-03-15T04:08:05.016Z,1002.01
2016-03-15T04:09:05.004Z,1002.01
2016-03-15T04:10:05.006Z,1002.02
2016-03-15T04:11:05.009Z,1002.04
2016-03-15T04:12:04.996Z,1002.02
2016-03-15T04:13:04.998Z,1002.03
2016-03-15T04:14:04.986Z,1001.97
2016-03-15T04:15:04.989Z,1001.95
2016-03-15T04:16:04.991Z,1001.94
2016-03-15T04:17:04.978Z,1001.93
2016-03-15T04:18:04.981Z,1001.96
2016-03-15T04:19:04.968Z,1001.96
2016-03-15T04:20:04.972Z,1001.95
2016-03-15T04:21:04.963Z,1001.94
2016-03-15T04:22:04.965Z,1001.92
2016-03-15T04:23:04.952Z,1001.92
2016-03-15T04:24:04.955Z,1001.92
2016-03-15T04:25:04.943Z,1001.91
2016-03-15T04:26:04.945Z,1001.95
2016-03-15T04:27:04.932Z,1001.94
2016-03-15T04:28:04.934Z,1001.93
2016-03-15T04:29:04.938Z,1001.92
2016-03-15T04:30:04.924Z,1001.97
2016-03-15T04:31:04.926Z,1001.95
2016-03-15T04:32:04.915Z,1001.96
2016-03-15T04:33:04.917Z,1001.97
2016-03-15T04:34:04.904Z,1001.95
2016-03-15T04:35:04.911Z,1001.96
2016-03-15T04:36:04.897Z,1001.93
2016-03-15T04:37:04.899Z,1001.85
2016-03-15T04:38:04.903Z,1001.89
2016-03-15T04:39:04.890Z,1001.86
2016-03-15T04:40:04.893Z,1001.86
2016-03-15T04:41:04.880Z,1001.86
2016-03-15T04:42:04.882Z,1001.88
2016-03-15T04:43:04.869Z,1001.87
2016-03-15T04:44:04.872Z,1001.87
2016-03-15T04:45:04.874Z,1001.83
2016-03-15T04:46:04.862Z,1001.85
2016-03-15T04:47:04.849Z,1001.86
2016-03-15T04:48:04.851Z,1001.86
2016-03-15T04:49:04.855Z,1001.81
2016-03-15T04:50:04.842Z,1001.83
2016-03-15T04:51:04.844Z,1001.82
2016-03-15T04:52:04.832Z,1001.79
2016-03-15T04:53:04.881Z,1001.84
2016-03-15T04:54:04.820Z,1001.83
2016-03-15T04:55:04.823Z,1001.94
2016-03-15T04:56:04.826Z,1001.85
2016-03-15T04:57:04.813Z,1001.86
2016-03-15T04:58:04.817Z,1001.8
2016-03-15T04:59:04.803Z,1001.84
2016-03-15T05:00:04.805Z,1001.88
2016-03-15T05:01:04.793Z,1001.83
2016-03-15T05:02:04.795Z,1001.86
2016-03-15T05:03:04.876Z,1001.9
2016-03-15T05:04:04.848Z,1001.89
2016-03-15T05:05:04.850Z,1001.86
2016-03-15T05:06:04.853Z,1001.84
2016-03-15T05:07:04.856Z,1001.86
2016-03-15T05:08:04.843Z,1001.91
2016-03-15T05:09:07.783Z,1001.95
2016-03-15T05:10:04.771Z,1001.94
2016-03-15T05:11:04.757Z,1001.94
2016-03-15T05:12:04.760Z,1001.97
2016-03-15T05:13:04.825Z,1001.96
2016-03-15T05:14:04.749Z,1002.01
2016-03-15T05:15:04.737Z,1001.96
2016-03-15T05:16:04.740Z,1001.93
2016-03-15T05:17:04.804Z,1001.92
2016-03-15T05:18:04.729Z,1001.95
2016-03-15T05:19:04.716Z,1001.93
2016-03-15T05:20:04.797Z,1001.97
2016-03-15T05:21:04.784Z,1001.98
2016-03-15T05:22:04.709Z,1002
2016-03-15T05:23:04.711Z,1001.95
2016-03-15T05:24:04.699Z,1001.96
2016-03-15T05:25:04.795Z,1001.96
2016-03-15T05:26:04.734Z,1001.92
2016-03-15T05:27:04.692Z,1001.85
2016-03-15T05:28:04.772Z,1001.81
2016-03-15T05:29:04.681Z,1001.79
2016-03-15T05:30:04.667Z,1001.8
2016-03-15T05:31:04.670Z,1001.78
2016-03-15T05:32:04.673Z,1001.81
2016-03-15T05:33:04.661Z,1001.79
2016-03-15T05:34:04.663Z,1001.8
2016-03-15T05:35:04.681Z,1001.76
2016-03-15T05:36:04.731Z,1001.71
2016-03-15T05:37:04.639Z,1001.74
2016-03-15T05:38:04.642Z,1001.7
2016-03-15T05:39:04.723Z,1001.68
2016-03-15T05:40:04.632Z,1001.64
2016-03-15T05:41:04.635Z,1001.7
2016-03-15T05:42:04.622Z,1001.71
2016-03-15T05:43:04.702Z,1001.72
2016-03-15T05:44:04.612Z,1001.72
2016-03-15T05:45:04.615Z,1001.69
2016-03-15T05:46:04.617Z,1001.68
2016-03-15T05:47:04.604Z,1001.69
2016-03-15T05:48:04.606Z,1001.76
2016-03-15T05:49:04.594Z,1001.72
2016-03-15T05:50:04.596Z,1001.74
2016-03-15T05:51:04.599Z,1001.76
2016-03-15T05:52:04.587Z,1001.76
2016-03-15T05:53:04.573Z,1001.78
2016-03-15T05:54:04.576Z,1001.79
2016-03-15T05:55:04.563Z,1001.8
2016-03-15T05:56:04.565Z,1001.82
2016-03-15T05:57:04.568Z,1001.81
2016-03-15T05:58:04.556Z,1001.83
2016-03-15T05:59:04.542Z,1001.84
2016-03-15T06:00:04.545Z,1001.85
2016-03-15T06:01:04.548Z,1001.82
2016-03-15T06:02:04.535Z,1001.83
2016-03-15T06:03:04.538Z,1001.81
2016-03-15T06:04:04.541Z,1001.8
2016-03-15T06:05:04.527Z,1001.82
2016-03-15T06:06:04.530Z,1001.79
2016-03-15T06:07:04.511Z,1001.79
2016-03-15T06:08:04.498Z,1001.78
2016-03-15T06:09:04.471Z,1001.78
2016-03-15T06:10:04.458Z,1001.78
2016-03-15T06:11:04.429Z,1001.78
2016-03-15T06:12:04.421Z,1001.77
2016-03-15T06:13:04.402Z,1001.78
2016-03-15T06:14:04.399Z,1001.81
2016-03-15T06:15:04.381Z,1001.8
2016-03-15T06:16:04.378Z,1001.8
2016-03-15T06:17:04.378Z,1001.81
2016-03-15T06:18:04.362Z,1001.82
2016-03-15T06:19:04.362Z,1001.79
2016-03-15T06:20:04.362Z,1001.84
2016-03-15T06:21:04.348Z,1001.83
2016-03-15T06:22:04.333Z,1001.82
2016-03-15T06:23:04.334Z,1001.81
2016-03-15T06:24:04.337Z,1001.82
2016-03-15T06:25:04.322Z,1001.84
2016-03-15T06:26:04.324Z,1001.83
2016-03-15T06:27:04.312Z,1001.89
2016-03-15T06:28:04.314Z,1001.88
2016-03-15T06:29:04.301Z,1001.9
2016-03-15T06:30:04.304Z,1001.91
2016-03-15T06:31:04.306Z,1001.91
2016-03-15T06:32:04.293Z,1001.93
2016-03-15T06:33:04.296Z,1001.89
2016-03-15T06:34:04.283Z,1001.98
2016-03-15T06:35:04.349Z,1001.93
2016-03-15T06:36:04.289Z,1001.95
2016-03-15T06:37:04.276Z,1001.99
2016-03-15T06:38:04.278Z,1001.95
2016-03-15T06:39:04.266Z,1001.96
2016-03-15T06:40:04.268Z,1001.93
2016-03-15T06:41:04.255Z,1001.9
2016-03-15T06:42:04.258Z,1001.92
2016-03-15T06:43:04.244Z,1001.93
2016-03-15T06:44:04.248Z,1001.94
2016-03-15T06:45:04.250Z,1001.93
2016-03-15T06:46:04.238Z,1002
2016-03-15T06:47:04.240Z,1001.93
2016-03-15T06:48:04.258Z,1001.94
2016-03-15T06:49:04.230Z,1001.95
2016-03-15T06:50:04.232Z,1001.96
2016-03-15T06:51:04.219Z,1001.98
2016-03-15T06:52:04.221Z,1001.94
2016-03-15T06:53:04.334Z,1002.02
2016-03-15T06:54:04.352Z,1002
2016-03-15T06:55:04.199Z,1001.97
2016-03-15T06:56:04.201Z,1002.01
2016-03-15T06:57:04.204Z,1002.01
2016-03-15T06:58:04.270Z,1002.02
2016-03-15T06:59:04.194Z,1002.06
2016-03-15T07:00:04.181Z,1002.09
2016-03-15T07:01:04.184Z,1002.1
2016-03-15T07:02:04.234Z,1002.07
2016-03-15T07:03:04.174Z,1002.08
2016-03-15T07:04:04.176Z,1002.11
2016-03-15T07:05:04.164Z,1002.08
2016-03-15T07:06:04.167Z,1002.11
2016-03-15T07:07:04.169Z,1002.1
2016-03-15T07:08:04.160Z,1002.08
2016-03-15T07:09:04.147Z,1002.11
2016-03-15T07:10:04.149Z,1002.1
2016-03-15T07:11:04.152Z,1002.07
2016-03-15T07:12:04.140Z,1002.11
2016-03-15T07:13:04.142Z,1002.11
2016-03-15T07:14:04.207Z,1002.1
2016-03-15T07:15:04.132Z,1002.13
2016-03-15T07:16:04.135Z,1002.16
2016-03-15T07:17:04.121Z,1002.15
2016-03-15T07:18:04.171Z,1002.16
2016-03-15T07:19:04.127Z,1002.18
2016-03-15T07:20:04.114Z,1002.12
2016-03-15T07:21:04.117Z,1002.13
2016-03-15T07:22:04.103Z,1002.13
2016-03-15T07:23:04.106Z,1002.15
2016-03-15T07:24:04.094Z,1002.15
2016-03-15T07:25:04.097Z,1002.18
2016-03-15T07:26:04.099Z,1002.13
2016-03-15T07:27:04.086Z,1002.13
2016-03-15T07:28:04.089Z,1002.18
2016-03-15T07:29:04.075Z,1002.17
2016-03-15T07:30:04.078Z,1002.21
2016-03-15T07:31:04.081Z,1002.23
2016-03-15T07:32:04.068Z,1002.22
2016-03-15T07:33:04.086Z,1002.32
2016-03-15T07:34:04.058Z,1002.29
2016-03-15T07:35:04.060Z,1002.32
2016-03-15T07:36:04.048Z,1002.3
2016-03-15T07:37:04.050Z,1002.26
2016-03-15T07:38:04.052Z,1002.26
2016-03-15T07:39:04.056Z,1002.26
2016-03-15T07:40:04.043Z,1002.29
2016-03-15T07:41:04.029Z,1002.29
2016-03-15T07:42:04.032Z,1002.26
2016-03-15T07:43:04.035Z,1002.32
2016-03-15T07:44:04.022Z,1002.34
2016-03-15T07:45:04.026Z,1002.33
2016-03-15T07:46:04.012Z,1002.31
2016-03-15T07:47:04.014Z,1002.34
2016-03-15T07:48:04.018Z,1002.37
2016-03-15T07:49:04.004Z,1002.36
2016-03-15T07:50:04.007Z,1002.36
2016-03-15T07:51:03.994Z,1002.37
2016-03-15T07:52:03.997Z,1002.37
2016-03-15T07:53:04.000Z,1002.38
2016-03-15T07:54:04.206Z,1002.4
2016-03-15T07:55:03.989Z,1002.39
2016-03-15T07:56:03.976Z,1002.4
2016-03-15T07:57:03.978Z,1002.37
2016-03-15T07:58:03.966Z,1002.4
2016-03-15T07:59:03.969Z,1002.39
2016-03-15T08:00:03.971Z,1002.41
2016-03-15T08:01:03.975Z,1002.39
2016-03-15T08:02:03.961Z,1002.41
2016-03-15T08:03:03.949Z,1002.44
2016-03-15T08:04:03.951Z,1002.48
2016-03-15T08:05:03.954Z,1002.51
2016-03-15T08:06:03.941Z,1002.51
2016-03-15T08:07:03.943Z,1002.56
2016-03-15T08:08:03.930Z,1002.52
2016-03-15T08:09:03.932Z,1002.6
2016-03-15T08:10:03.921Z,1002.59
2016-03-15T08:11:03.923Z,1002.55
2016-03-15T08:12:03.926Z,1002.59
2016-03-15T08:13:03.913Z,1002.56
2016-03-15T08:14:03.915Z,1002.55
2016-03-15T08:15:03.902Z,1002.5
2016-03-15T08:16:03.905Z,1002.51
2016-03-15T08:17:03.907Z,1002.5
2016-03-15T08:18:03.895Z,1002.54
2016-03-15T08:19:03.898Z,1002.54
2016-03-15T08:20:03.884Z,1002.58
2016-03-15T08:21:03.888Z,1002.54
2016-03-15T08:22:03.890Z,1002.57
2016-03-15T08:23:03.878Z,1002.56
2016-03-15T08:24:03.881Z,1002.63
2016-03-15T08:25:03.867Z,1002.58
2016-03-15T08:26:03.869Z,1002.59
2016-03-15T08:27:03.872Z,1002.6
2016-03-15T08:28:03.859Z,1002.6
2016-03-15T08:29:03.861Z,1002.65
2016-03-15T08:30:03.865Z,1002.64
2016-03-15T08:31:03.852Z,1002.73
2016-03-15T08:32:03.854Z,1002.68
2016-03-15T08:33:03.858Z,1002.7
2016-03-15T08:34:03.844Z,1002.72
2016-03-15T08:35:03.846Z,1002.74
2016-03-15T08:36:03.866Z,1002.73
2016-03-15T08:37:03.836Z,1002.77
2016-03-15T08:38:03.839Z,1002.74
2016-03-15T08:39:03.842Z,1002.79
2016-03-15T08:40:03.829Z,1002.76
2016-03-15T08:41:03.832Z,1002.73
2016-03-15T08:42:03.819Z,1002.73
2016-03-15T08:43:03.821Z,1002.78
2016-03-15T08:44:03.824Z,1002.79
2016-03-15T08:45:03.812Z,1002.77
2016-03-15T08:46:03.814Z,1002.78
2016-03-15T08:47:03.817Z,1002.77
2016-03-15T08:48:03.820Z,1002.8
2016-03-15T08:49:03.807Z,1002.74
2016-03-15T08:50:03.810Z,1002.71
2016-03-15T08:51:03.812Z,1002.66
2016-03-15T08:52:03.798Z,1002.64
2016-03-15T08:53:03.801Z,1002.59
2016-03-15T08:54:03.820Z,1002.6
2016-03-15T08:55:03.806Z,1002.63
2016-03-15T08:56:03.795Z,1002.65
2016-03-15T08:57:03.797Z,1002.71
2016-03-15T08:58:03.799Z,1002.69
2016-03-15T08:59:03.786Z,1002.67
2016-03-15T09:00:03.789Z,1002.71
2016-03-15T09:01:03.792Z,1002.72
2016-03-15T09:02:03.794Z,1002.71
2016-03-15T09:03:03.797Z,1002.73
2016-03-15T09:04:03.800Z,1002.75
2016-03-15T09:05:03.787Z,1002.74
2016-03-15T09:06:03.774Z,1002.68
2016-03-15T09:07:03.777Z,1002.72
2016-03-15T09:08:03.780Z,1002.74
2016-03-15T09:09:03.813Z,1002.73
2016-03-15T09:10:03.768Z,1002.78
2016-03-15T09:11:03.772Z,1002.77
2016-03-15T09:12:03.774Z,1002.75
2016-03-15T09:13:03.762Z,1002.7
2016-03-15T09:14:03.765Z,1002.71
2016-03-15T09:15:03.767Z,1002.72
2016-03-15T09:16:03.770Z,1002.71
2016-03-15T09:17:03.757Z,1002.73
2016-03-15T09:18:03.759Z,1002.71
2016-03-15T09:19:03.762Z,1002.74
2016-03-15T09:20:03.765Z,1002.73
2016-03-15T09:21:03.845Z,1002.8
2016-03-15T09:22:03.755Z,1002.78
2016-03-15T09:23:03.757Z,1002.74
2016-03-15T09:24:03.759Z,1002.85
2016-03-15T09:25:03.748Z,1002.83
2016-03-15T09:26:03.750Z,1002.82
2016-03-15T09:27:03.752Z,1002.84
2016-03-15T09:28:03.770Z,1002.89
2016-03-15T09:29:03.758Z,1002.92
2016-03-15T09:30:03.744Z,1002.88
2016-03-15T09:31:03.748Z,1002.9
2016-03-15T09:32:03.750Z,1002.96
2016-03-15T09:33:03.752Z,1002.98
2016-03-15T09:34:03.756Z,1003.01
2016-03-15T09:35:03.742Z,1003
2016-03-15T09:36:03.744Z,1003.03
2016-03-15T09:37:03.842Z,1003.11
2016-03-15T09:38:03.813Z,1003.07
2016-03-15T09:39:03.753Z,1003.1
2016-03-15T09:40:03.741Z,1003.08
2016-03-15T09:41:03.743Z,1003.04
2016-03-15T09:42:03.746Z,1002.98
2016-03-15T09:43:03.749Z,1002.89
2016-03-15T09:44:03.751Z,1002.93
2016-03-15T09:45:03.754Z,1002.93
2016-03-15T09:46:03.756Z,1002.96
2016-03-15T09:47:03.760Z,1002.98
2016-03-15T09:48:03.746Z,1002.96
2016-03-15T09:49:03.748Z,1002.96
2016-03-15T09:50:03.752Z,1002.98
2016-03-15T09:51:03.754Z,1003.05
2016-03-15T09:52:03.756Z,1002.99
2016-03-15T09:53:03.760Z,1003.02
2016-03-15T09:54:03.778Z,1003.08
2016-03-15T09:55:03.750Z,1003.03
2016-03-15T09:56:03.753Z,1003.03
2016-03-15T09:57:03.755Z,1003.06
2016-03-15T09:58:03.758Z,1003.07
2016-03-15T09:59:03.761Z,1003.02
2016-03-15T10:00:03.763Z,1002.99
2016-03-15T10:01:03.766Z,1002.91
2016-03-15T10:02:03.784Z,1002.87
2016-03-15T10:03:03.771Z,1002.89
2016-03-15T10:04:03.758Z,1002.85
2016-03-15T10:05:03.761Z,1002.86
2016-03-15T10:06:03.763Z,1002.85
2016-03-15T10:07:03.766Z,1002.91
2016-03-15T10:08:03.769Z,1002.92
2016-03-15T10:09:03.760Z,1002.91
2016-03-15T10:10:03.763Z,1002.93
2016-03-15T10:11:03.797Z,1002.96
2016-03-15T10:12:03.769Z,1002.93
2016-03-15T10:13:03.771Z,1002.95
2016-03-15T10:14:03.774Z,1002.93
2016-03-15T10:15:03.777Z,1002.95
2016-03-15T10:16:03.764Z,1002.96
2016-03-15T10:17:03.767Z,1002.91
2016-03-15T10:18:03.770Z,1002.91
2016-03-15T10:19:03.772Z,1002.87
2016-03-15T10:20:03.775Z,1002.87
2016-03-15T10:21:03.778Z,1002.9
2016-03-15T10:22:03.764Z,1002.89
2016-03-15T10:23:03.767Z,1002.95
2016-03-15T10:24:03.770Z,1002.98
2016-03-15T10:25:03.773Z,1002.91
2016-03-15T10:26:03.791Z,1002.98
2016-03-15T10:27:03.778Z,1002.92
2016-03-15T10:28:03.781Z,1002.93
2016-03-15T10:29:03.767Z,1002.91
2016-03-15T10:30:03.770Z,1002.94
2016-03-15T10:31:03.773Z,1002.92
2016-03-15T10:32:03.775Z,1002.95
2016-03-15T10:33:03.778Z,1002.96
2016-03-15T10:34:03.797Z,1002.99
2016-03-15T10:35:03.783Z,1002.96
2016-03-15T10:36:03.771Z,1003
2016-03-15T10:37:03.821Z,1003.01
2016-03-15T10:38:03.776Z,1003.03
2016-03-15T10:39:03.779Z,1003.03
2016-03-15T10:40:03.766Z,1003.06
2016-03-15T10:41:03.785Z,1003.04
2016-03-15T10:42:03.771Z,1003.03
2016-03-15T10:43:03.774Z,1003.02
2016-03-15T10:44:03.777Z,1003.02
2016-03-15T10:45:03.779Z,1003.03
2016-03-15T10:46:03.782Z,1003.04
2016-03-15T10:47:03.769Z,1002.99
2016-03-15T10:48:03.771Z,1003.01
2016-03-15T10:49:03.807Z,1002.97
2016-03-15T10:50:03.777Z,1002.93
2016-03-15T10:51:03.779Z,1002.93
2016-03-15T10:52:03.845Z,1002.86
2016-03-15T10:53:03.770Z,1002.87
2016-03-15T10:54:03.772Z,1002.84
2016-03-15T10:55:03.775Z,1002.82
2016-03-15T10:56:03.778Z,1002.78
2016-03-15T10:57:03.781Z,1002.8
2016-03-15T10:58:03.783Z,1002.78
2016-03-15T10:59:03.786Z,1002.82
2016-03-15T11:00:03.820Z,1002.81
2016-03-15T11:01:03.791Z,1002.8
2016-03-15T11:02:03.778Z,1002.79
2016-03-15T11:03:03.796Z,1002.76
2016-03-15T11:04:03.784Z,1002.74
2016-03-15T11:05:03.787Z,1002.76
2016-03-15T11:06:03.789Z,1002.74
2016-03-15T11:07:03.792Z,1002.76
2016-03-15T11:08:03.779Z,1002.74
2016-03-15T11:09:03.782Z,1002.76
2016-03-15T11:10:03.784Z,1002.72
2016-03-15T11:11:03.787Z,1002.69
2016-03-15T11:12:03.790Z,1002.74
2016-03-15T11:13:03.793Z,1002.69
2016-03-15T11:14:03.796Z,1002.73
2016-03-15T11:15:03.798Z,1002.74
2016-03-15T11:16:03.784Z,1002.76
2016-03-15T11:17:03.787Z,1002.77
2016-03-15T11:18:03.790Z,1002.76
2016-03-15T11:19:03.792Z,1002.81
2016-03-15T11:20:03.796Z,1002.79
2016-03-15T11:21:03.892Z,1002.81
2016-03-15T11:22:03.785Z,1002.76
2016-03-15T11:23:03.788Z,1002.74
2016-03-15T11:24:03.806Z,1002.74
2016-03-15T11:25:03.793Z,1002.71
2016-03-15T11:26:03.795Z,1002.73
2016-03-15T11:27:03.798Z,1002.73
2016-03-15T11:28:03.786Z,1002.73
2016-03-15T11:29:03.789Z,1002.77
2016-03-15T11:30:03.791Z,1002.76
2016-03-15T11:31:03.809Z,1002.79
2016-03-15T11:32:03.797Z,1002.8
2016-03-15T11:33:03.799Z,1002.81
2016-03-15T11:34:03.786Z,1002.83
2016-03-15T11:35:03.789Z,1002.79
2016-03-15T11:36:03.791Z,1002.77
2016-03-15T11:37:03.795Z,1002.79
2016-03-15T11:38:03.797Z,1002.82
2016-03-15T11:39:03.784Z,1002.86
2016-03-15T11:40:03.787Z,1002.92
2016-03-15T11:41:03.789Z,1002.97
2016-03-15T11:42:03.792Z,1002.94
2016-03-15T11:43:03.794Z,1002.93
2016-03-15T11:44:03.782Z,1002.88
2016-03-15T11:45:03.785Z,1002.91
2016-03-15T11:46:03.787Z,1002.96
2016-03-15T11:47:03.790Z,1002.97
2016-03-15T11:48:03.793Z,1002.94
2016-03-15T11:49:03.779Z,1002.93
2016-03-15T11:50:03.782Z,1002.92
2016-03-15T11:51:03.785Z,1002.94
2016-03-15T11:52:03.787Z,1002.93
2016-03-15T11:53:03.791Z,1002.96
2016-03-15T11:54:03.809Z,1002.96
2016-03-15T11:55:03.780Z,1003.02
2016-03-15T11:56:03.784Z,1002.95
2016-03-15T11:57:03.786Z,1002.91
2016-03-15T11:58:03.788Z,1002.93
2016-03-15T11:59:03.775Z,1002.9
2016-03-15T12:00:03.778Z,1002.88
2016-03-15T12:01:03.781Z,1002.84
2016-03-15T12:02:03.783Z,1002.82
2016-03-15T12:03:03.786Z,1002.82
2016-03-15T12:04:03.789Z,1002.79
2016-03-15T12:05:03.791Z,1002.77
2016-03-15T12:06:03.778Z,1002.79
2016-03-15T12:07:03.781Z,1002.74
2016-03-15T12:08:03.783Z,1002.78